Golden Meadow, LA

3:04 PM CDT on April 19, 2015 (GMT -0500)
Fourchon | | Change Station
CLOSE
Current Station
Airport
Location: Fourchon,
Elevation: 7 ft
Nearby Weather Stations

Elev 7 ft 29.10 °N, 90.20 °W | Updated 48 days ago

Clear
Clear
83 °F
Feels Like 85 °F
N
12
Wind Variable Wind from WSW
Gusts mph

Today
High -- | Low -- °F
--% Chance of Precip.
Yesterday
High -- | Low -- °F
Precip. -- in
6:30 AM 7:29 PM
New Moon, 2% visible
Pressure 30.27 in
Visibility 6.0 miles
Clouds Scattered Clouds 300 ft
Mostly Cloudy 6000 ft
Heat Index 85 °F
Dew Point 66 °F
Humidity 57%
Rainfall 0.00 in
Snow Depth Not available.
UV 4 out of 12
Pollen 6.50 out of 12
Air Quality Not available.
Flu Activity Local Activity
SPECI K9F2 021624Z 12007KT 6SM HZ SCT003 BKN060 21/21 A3027

More Conditions Fewer Conditions

Pressure 30.27 in
Visibility 6.0 miles
Clouds Scattered Clouds 300 ft
Mostly Cloudy 6000 ft
Heat Index 85 °F
Dew Point 66 °F
Humidity 57%
Rainfall 0.00 in
Snow Depth Not available.
UV 4 out of 12
Pollen 6.50 out of 12
Air Quality Not available.
Flu Activity Local Activity
SPECI K9F2 021624Z 12007KT 6SM HZ SCT003 BKN060 21/21 A3027

More Conditions Fewer Conditions

10-Day Weather Forecast

Almanac

Astronomy

Apr. 19, 2015 Rise Set
Actual Time
Civil Twilight
Nautical Twilight
Astronomical Twilight
Moon
Length of Visible Light
Length of Day
Tomorrow will be .
, % of the Moon is Illuminated

Today's Extremes

State Highs State Lows

Community

WunderPhotos

Upload Photos

1,814,956 photos uploaded!

WunderBlogs® & News

Nearby

Air Quality

  Air Quality AQ Index Pollutant
Not available.

Snow Depth

Station Depth Elevation

Earthquake Activity

City Distance Mag. Time & Date
Minimum magnitude displayed is 2.5.

Coastal Water Temperatures

Place Temperature

Stations

Nearby Weather Stations

Station Location Temp. Windchill Dew Point Humidity Wind Precip. Elev Updated Type